»·PEaware :: N520MP KVNY-KSAN

N520MP :: KVNY-KSAN

FLIGHT INFORMATION

Flight Status: Arrived
Operator: Privately registered:
United States
More flights under this callsign
Pilot: Manuel P. (9695)
Aircraft: BOMBARDIER BD-100 CHALLENGER 300
(CL30)
More flights by this aircraft type
Origin: KVNY Van Nuys
United States
Destination: KSAN San Diego Intl-Lindbergh
United States
More flights between these airports :: More routes between these airports
Route: +TWINE V518 KIMMO V459 SLI SLI171 LAX118 CARDI MZB320 MZB
File this flight plan on PilotEdge
Remarks: burn30B Tec route
Altitude:
(Current/Filed)
11,000ft
Speed:
(Current/Filed)
400kts
Departed: 28-Sep-17 03:59 PM
Arrived: 28-Sep-17 04:41 PM
Distance/Time
Traveled:
110nm/0:41
Distance/Time
To Go:
Arrived

Flight Plot

Page will automatically refresh every two minutes.


Map Options




Map Legend


Flown Route
Filed Route
Departure Airport
Arrival Airport
Navaid (VOR, NDB)
Fix

Horizontal Profiles

Position Reports

Time Latitude Longitude Heading Altitude Ground
Speed
28-Sep-17 15:45 34.205910 -118.493608 92 806ft 0kts
28-Sep-17 15:46 34.205910 -118.493608 92 806ft 0kts
28-Sep-17 15:47 34.205910 -118.493608 92 806ft 0kts
28-Sep-17 15:48 34.205910 -118.493608 92 806ft 0kts
28-Sep-17 15:49 34.205910 -118.493608 92 806ft 0kts
28-Sep-17 15:50 34.205910 -118.493608 92 806ft 0kts
28-Sep-17 15:51 34.205910 -118.493608 92 806ft 0kts
28-Sep-17 15:52 34.205910 -118.493608 92 806ft 0kts
28-Sep-17 15:53 34.205910 -118.493608 92 806ft 0kts
28-Sep-17 15:54 34.205910 -118.493608 92 806ft 0kts
28-Sep-17 15:55 34.205910 -118.493608 92 806ft 0kts
28-Sep-17 15:56 34.205910 -118.493608 92 806ft 0kts
28-Sep-17 15:57 34.206385 -118.493225 24 807ft 7kts
28-Sep-17 15:58 34.207138 -118.491283 356 807ft 7kts
28-Sep-17 15:59 34.210974 -118.491643 355 806ft 19kts
28-Sep-17 16:00 34.215398 -118.492137 350 806ft 7kts
28-Sep-17 16:01 34.218315 -118.492332 0 806ft 6kts
28-Sep-17 16:02 34.218557 -118.492268 30 806ft 0kts
28-Sep-17 16:03 34.215937 -118.490901 175 806ft 80kts
28-Sep-17 16:04 34.179835 -118.456442 122 3238ft 256kts
28-Sep-17 16:05 34.143512 -118.381253 122 3980ft 255kts
28-Sep-17 16:06 34.122077 -118.305177 62 3970ft 258kts
28-Sep-17 16:07 34.193771 -118.291300 352 5750ft 288kts
28-Sep-17 16:08 34.271559 -118.315729 342 8192ft 294kts
28-Sep-17 16:09 34.350779 -118.344027 345 9986ft 294kts
28-Sep-17 16:10 34.400463 -118.406802 262 9662ft 272kts
28-Sep-17 16:11 34.353927 -118.440328 157 10334ft 295kts
28-Sep-17 16:12 34.283913 -118.374335 140 11015ft 356kts
28-Sep-17 16:13 34.203650 -118.300015 146 10970ft 357kts
28-Sep-17 16:14 34.118987 -118.248868 152 10985ft 342kts
28-Sep-17 16:15 34.034755 -118.199676 152 10987ft 336kts
28-Sep-17 16:16 33.949823 -118.150523 152 10964ft 346kts
28-Sep-17 16:17 33.864650 -118.101472 152 10960ft 351kts
28-Sep-17 16:18 33.776715 -118.050902 154 10957ft 354kts
28-Sep-17 16:19 33.678607 -118.059953 188 10960ft 362kts
28-Sep-17 16:20 33.595668 -118.022208 110 10963ft 346kts
28-Sep-17 16:21 33.558549 -117.916333 128 10958ft 351kts
28-Sep-17 16:22 33.482899 -117.840938 136 10975ft 359kts
28-Sep-17 16:23 33.412054 -117.760947 133 10975ft 346kts
28-Sep-17 16:24 33.344031 -117.681398 131 11006ft 345kts
28-Sep-17 16:25 33.276271 -117.596579 131 11006ft 361kts
28-Sep-17 16:26 33.206969 -117.509685 131 10998ft 351kts
28-Sep-17 16:27 33.144586 -117.431944 131 10968ft 302kts
28-Sep-17 16:28 33.070221 -117.384425 152 9252ft 307kts
28-Sep-17 16:29 32.996272 -117.341972 152 7338ft 286kts
28-Sep-17 16:30 32.930007 -117.304092 156 6991ft 240kts
28-Sep-17 16:31 32.870237 -117.273441 157 7018ft 258kts
28-Sep-17 16:32 32.801618 -117.228577 120 6971ft 307kts
28-Sep-17 16:33 32.781189 -117.133477 101 6498ft 290kts
28-Sep-17 16:34 32.764321 -117.041254 101 4979ft 266kts
28-Sep-17 16:35 32.749555 -116.962411 101 5002ft 240kts
28-Sep-17 16:36 32.733676 -116.881242 101 4990ft 241kts
28-Sep-17 16:37 32.718708 -116.812739 124 4990ft 210kts
28-Sep-17 16:38 32.686617 -116.834324 298 5052ft 208kts
28-Sep-17 16:39 32.664425 -116.899154 264 4995ft 220kts
28-Sep-17 16:40 32.680625 -116.972716 287 3628ft 244kts
28-Sep-17 16:41 32.697895 -117.042941 286 2295ft 199kts
28-Sep-17 16:42 32.710849 -117.098769 288 1487ft 163kts
28-Sep-17 16:43 32.722471 -117.144050 289 765ft 133kts
28-Sep-17 16:44 32.733199 -117.188423 287 24ft 121kts
28-Sep-17 16:45 32.734207 -117.194819 218 23ft 0kts
28-Sep-17 16:46 32.733955 -117.194868 160 23ft 5kts
28-Sep-17 16:47 32.733351 -117.191613 34 24ft 11kts
28-Sep-17 16:48 32.734386 -117.188318 105 23ft 17kts
28-Sep-17 16:49 32.732955 -117.182425 106 24ft 18kts
28-Sep-17 16:50 32.732447 -117.178941 53 24ft 0kts

Navigation Log

Ident Type
1. KVNY Airport
2. TWINE Fix
3. LANGE Fix
4. KIMMO Fix
5. BERRI Fix
6. DARTS Fix
7. DODGR Fix
8. SLI Navaid
9. CARDI Fix
10. MZB Navaid
11. KSAN Airport